sensor_id;sensor_type;location;lat;lon;timestamp;temperature;humidity
38488;DHT22;57384;51.986;4.458;2022-11-15T00:00:40;9.10;79.90
38488;DHT22;57384;51.986;4.458;2022-11-15T00:03:28;9.10;79.90
38488;DHT22;57384;51.986;4.458;2022-11-15T00:06:15;9.10;80.00
38488;DHT22;57384;51.986;4.458;2022-11-15T00:09:00;9.10;80.00
38488;DHT22;57384;51.986;4.458;2022-11-15T00:11:44;9.10;80.00
38488;DHT22;57384;51.986;4.458;2022-11-15T00:14:28;9.10;80.00
38488;DHT22;57384;51.986;4.458;2022-11-15T00:17:12;9.20;80.10
38488;DHT22;57384;51.986;4.458;2022-11-15T00:19:59;9.20;80.20
38488;DHT22;57384;51.986;4.458;2022-11-15T00:22:43;9.20;80.40
38488;DHT22;57384;51.986;4.458;2022-11-15T00:25:27;9.20;80.40
38488;DHT22;57384;51.986;4.458;2022-11-15T00:28:11;9.20;80.40
38488;DHT22;57384;51.986;4.458;2022-11-15T00:31:04;9.20;80.50
38488;DHT22;57384;51.986;4.458;2022-11-15T00:33:48;9.20;80.70
38488;DHT22;57384;51.986;4.458;2022-11-15T00:36:36;9.20;80.60
38488;DHT22;57384;51.986;4.458;2022-11-15T00:39:20;9.20;80.60
38488;DHT22;57384;51.986;4.458;2022-11-15T00:42:05;9.20;80.70
38488;DHT22;57384;51.986;4.458;2022-11-15T00:44:49;9.30;80.80
38488;DHT22;57384;51.986;4.458;2022-11-15T00:47:33;9.20;80.80
38488;DHT22;57384;51.986;4.458;2022-11-15T00:50:17;9.30;80.90
38488;DHT22;57384;51.986;4.458;2022-11-15T00:53:02;9.30;81.00
38488;DHT22;57384;51.986;4.458;2022-11-15T00:55:46;9.30;81.10
38488;DHT22;57384;51.986;4.458;2022-11-15T00:58:31;9.30;81.10
38488;DHT22;57384;51.986;4.458;2022-11-15T01:01:14;9.30;81.10
38488;DHT22;57384;51.986;4.458;2022-11-15T01:04:09;9.30;81.20
38488;DHT22;57384;51.986;4.458;2022-11-15T01:10:04;9.40;81.30
38488;DHT22;57384;51.986;4.458;2022-11-15T01:12:48;9.40;81.30
38488;DHT22;57384;51.986;4.458;2022-11-15T01:15:33;9.40;81.40
38488;DHT22;57384;51.986;4.458;2022-11-15T01:18:17;9.30;81.40
38488;DHT22;57384;51.986;4.458;2022-11-15T01:21:09;9.40;81.50
38488;DHT22;57384;51.986;4.458;2022-11-15T01:23:55;9.40;82.20
38488;DHT22;57384;51.986;4.458;2022-11-15T01:26:40;9.40;81.50
38488;DHT22;57384;51.986;4.458;2022-11-15T01:29:25;9.40;81.60
38488;DHT22;57384;51.986;4.458;2022-11-15T01:32:09;9.50;81.70
38488;DHT22;57384;51.986;4.458;2022-11-15T01:34:53;9.50;81.70
38488;DHT22;57384;51.986;4.458;2022-11-15T01:37:39;9.50;81.80
38488;DHT22;57384;51.986;4.458;2022-11-15T01:40:24;9.50;81.80
38488;DHT22;57384;51.986;4.458;2022-11-15T01:43:22;9.50;81.80
38488;DHT22;57384;51.986;4.458;2022-11-15T01:46:30;9.60;82.20
38488;DHT22;57384;51.986;4.458;2022-11-15T01:49:19;9.60;82.20
38488;DHT22;57384;51.986;4.458;2022-11-15T01:52:14;9.60;82.10
38488;DHT22;57384;51.986;4.458;2022-11-15T01:58:11;9.60;82.10
38488;DHT22;57384;51.986;4.458;2022-11-15T02:00:55;9.60;82.10
38488;DHT22;57384;51.986;4.458;2022-11-15T02:03:58;9.60;82.20
38488;DHT22;57384;51.986;4.458;2022-11-15T02:06:44;9.60;82.90
38488;DHT22;57384;51.986;4.458;2022-11-15T02:09:29;9.70;82.40
38488;DHT22;57384;51.986;4.458;2022-11-15T02:12:19;9.70;82.40
38488;DHT22;57384;51.986;4.458;2022-11-15T02:15:09;9.70;82.60
38488;DHT22;57384;51.986;4.458;2022-11-15T02:18:18;9.70;82.50
38488;DHT22;57384;51.986;4.458;2022-11-15T02:30:24;9.80;83.00
38488;DHT22;57384;51.986;4.458;2022-11-15T02:33:43;9.80;82.80
38488;DHT22;57384;51.986;4.458;2022-11-15T02:36:44;9.90;83.20
38488;DHT22;57384;51.986;4.458;2022-11-15T02:42:44;9.90;83.20
38488;DHT22;57384;51.986;4.458;2022-11-15T02:45:33;9.90;83.40
38488;DHT22;57384;51.986;4.458;2022-11-15T02:48:21;10.00;82.80
38488;DHT22;57384;51.986;4.458;2022-11-15T02:51:09;10.00;83.10
38488;DHT22;57384;51.986;4.458;2022-11-15T02:53:54;10.00;83.30
38488;DHT22;57384;51.986;4.458;2022-11-15T02:56:38;10.00;82.90
38488;DHT22;57384;51.986;4.458;2022-11-15T02:59:48;10.00;83.10
38488;DHT22;57384;51.986;4.458;2022-11-15T03:11:38;10.20;84.00
38488;DHT22;57384;51.986;4.458;2022-11-15T03:14:29;10.20;83.90
38488;DHT22;57384;51.986;4.458;2022-11-15T03:17:27;10.20;84.00
38488;DHT22;57384;51.986;4.458;2022-11-15T03:20:13;10.40;84.60
38488;DHT22;57384;51.986;4.458;2022-11-15T03:23:06;10.20;84.20
38488;DHT22;57384;51.986;4.458;2022-11-15T03:25:54;10.30;84.50
38488;DHT22;57384;51.986;4.458;2022-11-15T03:28:56;10.40;84.60
38488;DHT22;57384;51.986;4.458;2022-11-15T03:31:46;10.40;84.80
38488;DHT22;57384;51.986;4.458;2022-11-15T03:34:41;10.40;84.80
38488;DHT22;57384;51.986;4.458;2022-11-15T03:40:48;10.50;85.30
38488;DHT22;57384;51.986;4.458;2022-11-15T03:43:51;10.50;85.30
38488;DHT22;57384;51.986;4.458;2022-11-15T03:46:53;10.50;85.40
38488;DHT22;57384;51.986;4.458;2022-11-15T03:50:05;10.60;85.60
38488;DHT22;57384;51.986;4.458;2022-11-15T03:52:48;10.50;85.50
38488;DHT22;57384;51.986;4.458;2022-11-15T03:55:33;10.60;85.50
38488;DHT22;57384;51.986;4.458;2022-11-15T03:58:17;10.60;85.60
38488;DHT22;57384;51.986;4.458;2022-11-15T04:01:01;10.70;85.80
38488;DHT22;57384;51.986;4.458;2022-11-15T04:03:48;10.70;85.80
38488;DHT22;57384;51.986;4.458;2022-11-15T04:06:32;10.70;86.00
38488;DHT22;57384;51.986;4.458;2022-11-15T04:09:18;10.80;86.10
38488;DHT22;57384;51.986;4.458;2022-11-15T04:12:02;10.80;86.20
38488;DHT22;57384;51.986;4.458;2022-11-15T04:14:46;10.80;86.30
38488;DHT22;57384;51.986;4.458;2022-11-15T04:17:31;10.80;86.30
38488;DHT22;57384;51.986;4.458;2022-11-15T04:23:02;10.90;86.70
38488;DHT22;57384;51.986;4.458;2022-11-15T04:25:49;10.90;86.70
38488;DHT22;57384;51.986;4.458;2022-11-15T04:28:34;10.90;86.70
38488;DHT22;57384;51.986;4.458;2022-11-15T04:31:19;10.90;86.80
38488;DHT22;57384;51.986;4.458;2022-11-15T04:34:03;11.00;86.90
38488;DHT22;57384;51.986;4.458;2022-11-15T04:36:47;11.00;86.90
38488;DHT22;57384;51.986;4.458;2022-11-15T04:39:31;11.00;86.90
38488;DHT22;57384;51.986;4.458;2022-11-15T04:42:15;11.00;87.00
38488;DHT22;57384;51.986;4.458;2022-11-15T04:44:59;11.10;87.10
38488;DHT22;57384;51.986;4.458;2022-11-15T04:47:44;11.10;87.10
38488;DHT22;57384;51.986;4.458;2022-11-15T04:50:28;11.10;87.80
38488;DHT22;57384;51.986;4.458;2022-11-15T04:53:12;11.10;87.20
38488;DHT22;57384;51.986;4.458;2022-11-15T04:55:56;11.10;87.30
38488;DHT22;57384;51.986;4.458;2022-11-15T04:58:40;11.10;87.30
38488;DHT22;57384;51.986;4.458;2022-11-15T05:01:25;11.20;87.30
38488;DHT22;57384;51.986;4.458;2022-11-15T05:04:09;11.20;87.30
38488;DHT22;57384;51.986;4.458;2022-11-15T05:06:53;11.20;87.40
38488;DHT22;57384;51.986;4.458;2022-11-15T05:09:37;11.20;87.20
38488;DHT22;57384;51.986;4.458;2022-11-15T05:12:21;11.20;87.20
38488;DHT22;57384;51.986;4.458;2022-11-15T05:15:05;11.20;87.20
38488;DHT22;57384;51.986;4.458;2022-11-15T05:17:49;11.30;87.30
38488;DHT22;57384;51.986;4.458;2022-11-15T05:20:33;11.30;87.60
38488;DHT22;57384;51.986;4.458;2022-11-15T05:23:17;11.30;87.20
38488;DHT22;57384;51.986;4.458;2022-11-15T05:26:03;11.30;87.20
38488;DHT22;57384;51.986;4.458;2022-11-15T05:28:55;11.30;87.30
38488;DHT22;57384;51.986;4.458;2022-11-15T05:31:40;11.30;87.90
38488;DHT22;57384;51.986;4.458;2022-11-15T05:34:25;11.30;87.20
38488;DHT22;57384;51.986;4.458;2022-11-15T05:37:10;11.30;87.20
38488;DHT22;57384;51.986;4.458;2022-11-15T05:39:54;11.40;87.20
38488;DHT22;57384;51.986;4.458;2022-11-15T05:42:38;11.40;87.30
38488;DHT22;57384;51.986;4.458;2022-11-15T05:45:22;11.40;87.20
38488;DHT22;57384;51.986;4.458;2022-11-15T05:48:07;11.40;87.20
38488;DHT22;57384;51.986;4.458;2022-11-15T05:50:53;11.40;87.20
38488;DHT22;57384;51.986;4.458;2022-11-15T05:53:37;11.40;87.10
38488;DHT22;57384;51.986;4.458;2022-11-15T05:56:21;11.40;87.00
38488;DHT22;57384;51.986;4.458;2022-11-15T05:59:07;11.40;87.00
38488;DHT22;57384;51.986;4.458;2022-11-15T06:01:52;11.40;87.00
38488;DHT22;57384;51.986;4.458;2022-11-15T06:04:36;11.40;86.80
38488;DHT22;57384;51.986;4.458;2022-11-15T06:07:20;11.40;86.80
38488;DHT22;57384;51.986;4.458;2022-11-15T06:10:05;11.50;86.80
38488;DHT22;57384;51.986;4.458;2022-11-15T06:12:57;11.40;86.80
38488;DHT22;57384;51.986;4.458;2022-11-15T06:15:41;11.40;86.80
38488;DHT22;57384;51.986;4.458;2022-11-15T06:18:25;11.50;86.70
38488;DHT22;57384;51.986;4.458;2022-11-15T06:21:09;11.40;86.70
38488;DHT22;57384;51.986;4.458;2022-11-15T06:23:53;11.40;86.60
38488;DHT22;57384;51.986;4.458;2022-11-15T06:26:37;11.40;86.60
38488;DHT22;57384;51.986;4.458;2022-11-15T06:29:21;11.40;86.50
38488;DHT22;57384;51.986;4.458;2022-11-15T06:32:05;11.40;86.50
38488;DHT22;57384;51.986;4.458;2022-11-15T06:34:49;11.30;86.30
38488;DHT22;57384;51.986;4.458;2022-11-15T06:37:34;11.30;86.30
38488;DHT22;57384;51.986;4.458;2022-11-15T06:40:18;11.40;86.30
38488;DHT22;57384;51.986;4.458;2022-11-15T06:43:03;11.30;86.30
38488;DHT22;57384;51.986;4.458;2022-11-15T06:45:47;11.30;86.30
38488;DHT22;57384;51.986;4.458;2022-11-15T06:48:33;11.30;86.30
38488;DHT22;57384;51.986;4.458;2022-11-15T06:51:17;11.30;86.20
38488;DHT22;57384;51.986;4.458;2022-11-15T06:54:02;11.20;86.70
38488;DHT22;57384;51.986;4.458;2022-11-15T06:56:46;11.20;86.10
38488;DHT22;57384;51.986;4.458;2022-11-15T06:59:33;11.20;86.10
38488;DHT22;57384;51.986;4.458;2022-11-15T07:02:20;11.20;86.10
38488;DHT22;57384;51.986;4.458;2022-11-15T07:05:05;11.20;86.10
38488;DHT22;57384;51.986;4.458;2022-11-15T07:07:53;11.10;86.10
38488;DHT22;57384;51.986;4.458;2022-11-15T07:10:40;11.20;86.30
38488;DHT22;57384;51.986;4.458;2022-11-15T07:13:26;11.10;86.20
38488;DHT22;57384;51.986;4.458;2022-11-15T07:16:11;11.10;86.10
38488;DHT22;57384;51.986;4.458;2022-11-15T07:18:55;11.00;86.10
38488;DHT22;57384;51.986;4.458;2022-11-15T07:21:44;11.00;86.10
38488;DHT22;57384;51.986;4.458;2022-11-15T07:24:29;11.10;86.20
38488;DHT22;57384;51.986;4.458;2022-11-15T07:27:13;11.00;86.00
38488;DHT22;57384;51.986;4.458;2022-11-15T07:29:57;11.10;86.10
38488;DHT22;57384;51.986;4.458;2022-11-15T07:32:41;11.00;86.10
38488;DHT22;57384;51.986;4.458;2022-11-15T07:35:26;11.00;86.10
38488;DHT22;57384;51.986;4.458;2022-11-15T07:38:10;11.00;86.00
38488;DHT22;57384;51.986;4.458;2022-11-15T07:41:02;11.00;86.00
38488;DHT22;57384;51.986;4.458;2022-11-15T07:43:47;11.00;86.00
38488;DHT22;57384;51.986;4.458;2022-11-15T07:46:31;10.90;86.40
38488;DHT22;57384;51.986;4.458;2022-11-15T07:49:16;11.00;85.40
38488;DHT22;57384;51.986;4.458;2022-11-15T07:52:00;11.00;85.80
38488;DHT22;57384;51.986;4.458;2022-11-15T07:54:44;11.00;85.80
38488;DHT22;57384;51.986;4.458;2022-11-15T07:57:29;11.00;85.70
38488;DHT22;57384;51.986;4.458;2022-11-15T08:00:14;11.00;85.70
38488;DHT22;57384;51.986;4.458;2022-11-15T08:03:09;11.00;85.60
38488;DHT22;57384;51.986;4.458;2022-11-15T08:05:57;11.00;85.70
38488;DHT22;57384;51.986;4.458;2022-11-15T08:08:42;11.00;85.60
38488;DHT22;57384;51.986;4.458;2022-11-15T08:11:26;11.00;85.60
38488;DHT22;57384;51.986;4.458;2022-11-15T08:14:10;11.00;85.60
38488;DHT22;57384;51.986;4.458;2022-11-15T08:16:57;11.00;85.50
38488;DHT22;57384;51.986;4.458;2022-11-15T08:19:44;10.90;85.50
38488;DHT22;57384;51.986;4.458;2022-11-15T08:22:28;11.00;85.50
38488;DHT22;57384;51.986;4.458;2022-11-15T08:25:12;11.00;85.30
38488;DHT22;57384;51.986;4.458;2022-11-15T08:27:58;11.00;85.30
38488;DHT22;57384;51.986;4.458;2022-11-15T08:30:43;11.00;85.30
38488;DHT22;57384;51.986;4.458;2022-11-15T08:33:27;11.00;85.20
38488;DHT22;57384;51.986;4.458;2022-11-15T08:36:17;11.00;85.10
38488;DHT22;57384;51.986;4.458;2022-11-15T08:39:02;11.10;85.20
38488;DHT22;57384;51.986;4.458;2022-11-15T08:41:46;11.10;85.00
38488;DHT22;57384;51.986;4.458;2022-11-15T08:44:30;11.10;85.00
38488;DHT22;57384;51.986;4.458;2022-11-15T08:47:14;11.10;85.00
38488;DHT22;57384;51.986;4.458;2022-11-15T08:49:58;11.10;84.90
38488;DHT22;57384;51.986;4.458;2022-11-15T08:52:42;11.20;84.90
38488;DHT22;57384;51.986;4.458;2022-11-15T08:55:28;11.20;84.70
38488;DHT22;57384;51.986;4.458;2022-11-15T09:01:18;11.30;84.80
38488;DHT22;57384;51.986;4.458;2022-11-15T09:04:02;11.30;84.60
38488;DHT22;57384;51.986;4.458;2022-11-15T09:06:47;11.30;84.40
38488;DHT22;57384;51.986;4.458;2022-11-15T09:09:31;11.40;84.30
38488;DHT22;57384;51.986;4.458;2022-11-15T09:12:15;11.40;84.10
38488;DHT22;57384;51.986;4.458;2022-11-15T09:14:59;11.50;84.00
38488;DHT22;57384;51.986;4.458;2022-11-15T09:17:43;11.50;83.90
38488;DHT22;57384;51.986;4.458;2022-11-15T09:20:30;11.50;83.70
38488;DHT22;57384;51.986;4.458;2022-11-15T09:23:14;11.70;83.70
38488;DHT22;57384;51.986;4.458;2022-11-15T09:26:02;11.70;83.40
38488;DHT22;57384;51.986;4.458;2022-11-15T09:28:47;11.80;83.40
38488;DHT22;57384;51.986;4.458;2022-11-15T09:31:31;11.80;83.20
38488;DHT22;57384;51.986;4.458;2022-11-15T09:34:15;11.90;83.20
38488;DHT22;57384;51.986;4.458;2022-11-15T09:36:59;12.00;83.10
38488;DHT22;57384;51.986;4.458;2022-11-15T09:39:43;12.00;82.90
38488;DHT22;57384;51.986;4.458;2022-11-15T09:54:30;12.40;82.20
38488;DHT22;57384;51.986;4.458;2022-11-15T09:57:19;12.60;82.20
38488;DHT22;57384;51.986;4.458;2022-11-15T10:00:11;12.60;81.90
38488;DHT22;57384;51.986;4.458;2022-11-15T10:03:27;12.70;81.80
38488;DHT22;57384;51.986;4.458;2022-11-15T10:06:22;12.70;81.70
38488;DHT22;57384;51.986;4.458;2022-11-15T10:09:21;12.80;81.50
38488;DHT22;57384;51.986;4.458;2022-11-15T10:12:08;12.80;81.40
38488;DHT22;57384;51.986;4.458;2022-11-15T10:15:14;12.90;81.30
38488;DHT22;57384;51.986;4.458;2022-11-15T10:18:18;13.00;81.20
38488;DHT22;57384;51.986;4.458;2022-11-15T10:24:28;13.10;80.90
38488;DHT22;57384;51.986;4.458;2022-11-15T10:27:17;13.10;80.70
38488;DHT22;57384;51.986;4.458;2022-11-15T10:30:04;13.20;80.80
38488;DHT22;57384;51.986;4.458;2022-11-15T10:32:54;13.30;80.60
38488;DHT22;57384;51.986;4.458;2022-11-15T10:35:38;13.40;80.40
38488;DHT22;57384;51.986;4.458;2022-11-15T10:38:22;13.40;80.40
38488;DHT22;57384;51.986;4.458;2022-11-15T10:41:10;13.50;80.60
38488;DHT22;57384;51.986;4.458;2022-11-15T10:52:45;13.90;79.00
38488;DHT22;57384;51.986;4.458;2022-11-15T10:55:31;13.90;78.80
38488;DHT22;57384;51.986;4.458;2022-11-15T10:58:45;14.00;79.10
38488;DHT22;57384;51.986;4.458;2022-11-15T11:01:46;14.00;78.90
38488;DHT22;57384;51.986;4.458;2022-11-15T11:04:49;14.00;78.90
38488;DHT22;57384;51.986;4.458;2022-11-15T11:07:34;14.10;78.80
38488;DHT22;57384;51.986;4.458;2022-11-15T11:10:20;14.10;78.60
38488;DHT22;57384;51.986;4.458;2022-11-15T11:13:23;14.10;78.50
38488;DHT22;57384;51.986;4.458;2022-11-15T11:16:32;14.20;78.40
38488;DHT22;57384;51.986;4.458;2022-11-15T11:22:30;14.20;78.70
38488;DHT22;57384;51.986;4.458;2022-11-15T11:28:47;14.20;77.70
38488;DHT22;57384;51.986;4.458;2022-11-15T11:31:52;14.20;77.60
38488;DHT22;57384;51.986;4.458;2022-11-15T11:38:10;14.30;77.20
38488;DHT22;57384;51.986;4.458;2022-11-15T11:44:28;14.40;77.10
38488;DHT22;57384;51.986;4.458;2022-11-15T11:47:24;14.40;77.10
38488;DHT22;57384;51.986;4.458;2022-11-15T11:50:23;14.40;77.00
38488;DHT22;57384;51.986;4.458;2022-11-15T11:56:03;14.50;76.90
38488;DHT22;57384;51.986;4.458;2022-11-15T11:58:50;14.50;76.70
38488;DHT22;57384;51.986;4.458;2022-11-15T12:01:44;14.50;76.50
38488;DHT22;57384;51.986;4.458;2022-11-15T12:04:37;14.50;76.20
38488;DHT22;57384;51.986;4.458;2022-11-15T12:07:31;14.50;76.00
38488;DHT22;57384;51.986;4.458;2022-11-15T12:10:22;14.50;76.00
38488;DHT22;57384;51.986;4.458;2022-11-15T12:13:19;14.50;76.00
38488;DHT22;57384;51.986;4.458;2022-11-15T12:16:37;14.50;75.70
38488;DHT22;57384;51.986;4.458;2022-11-15T12:19:22;14.50;75.80
38488;DHT22;57384;51.986;4.458;2022-11-15T12:25:08;14.50;75.70
38488;DHT22;57384;51.986;4.458;2022-11-15T12:28:05;14.50;75.40
38488;DHT22;57384;51.986;4.458;2022-11-15T12:30:54;14.50;75.30
38488;DHT22;57384;51.986;4.458;2022-11-15T12:33:41;14.50;75.40
38488;DHT22;57384;51.986;4.458;2022-11-15T12:36:38;14.50;75.20
38488;DHT22;57384;51.986;4.458;2022-11-15T12:45:49;14.50;75.00
38488;DHT22;57384;51.986;4.458;2022-11-15T12:51:22;14.50;74.60
38488;DHT22;57384;51.986;4.458;2022-11-15T12:57:45;14.40;75.00
38488;DHT22;57384;51.986;4.458;2022-11-15T13:09:56;14.30;74.80
38488;DHT22;57384;51.986;4.458;2022-11-15T13:16:03;14.30;74.50
38488;DHT22;57384;51.986;4.458;2022-11-15T13:18:54;14.30;74.60
38488;DHT22;57384;51.986;4.458;2022-11-15T13:21:51;14.30;74.10
38488;DHT22;57384;51.986;4.458;2022-11-15T13:24:38;14.30;73.90
38488;DHT22;57384;51.986;4.458;2022-11-15T13:27:24;14.30;74.10
38488;DHT22;57384;51.986;4.458;2022-11-15T13:30:21;14.30;74.60
38488;DHT22;57384;51.986;4.458;2022-11-15T13:33:37;14.20;74.10
38488;DHT22;57384;51.986;4.458;2022-11-15T13:36:30;14.20;73.70
38488;DHT22;57384;51.986;4.458;2022-11-15T13:39:30;14.20;73.20
38488;DHT22;57384;51.986;4.458;2022-11-15T13:42:17;14.20;73.30
38488;DHT22;57384;51.986;4.458;2022-11-15T13:45:04;14.10;73.40
38488;DHT22;57384;51.986;4.458;2022-11-15T13:47:59;14.10;73.20
38488;DHT22;57384;51.986;4.458;2022-11-15T13:50:47;14.10;73.10
38488;DHT22;57384;51.986;4.458;2022-11-15T13:53:37;14.10;73.10
38488;DHT22;57384;51.986;4.458;2022-11-15T13:56:23;14.10;73.10
38488;DHT22;57384;51.986;4.458;2022-11-15T13:59:30;14.10;73.00
38488;DHT22;57384;51.986;4.458;2022-11-15T14:02:21;14.00;72.80
38488;DHT22;57384;51.986;4.458;2022-11-15T14:05:19;14.00;73.00
38488;DHT22;57384;51.986;4.458;2022-11-15T14:08:22;14.00;72.70
38488;DHT22;57384;51.986;4.458;2022-11-15T14:11:49;14.00;72.70
38488;DHT22;57384;51.986;4.458;2022-11-15T14:14:44;14.00;72.90
38488;DHT22;57384;51.986;4.458;2022-11-15T14:23:26;13.90;72.50
38488;DHT22;57384;51.986;4.458;2022-11-15T14:26:29;13.90;72.60
38488;DHT22;57384;51.986;4.458;2022-11-15T14:29:28;13.90;72.40
38488;DHT22;57384;51.986;4.458;2022-11-15T14:32:48;13.90;72.30
38488;DHT22;57384;51.986;4.458;2022-11-15T14:35:27;13.90;72.50
38488;DHT22;57384;51.986;4.458;2022-11-15T14:38:12;13.90;72.50
38488;DHT22;57384;51.986;4.458;2022-11-15T14:40:56;13.90;72.90
38488;DHT22;57384;51.986;4.458;2022-11-15T14:43:40;13.80;72.70
38488;DHT22;57384;51.986;4.458;2022-11-15T14:46:24;13.80;72.70
38488;DHT22;57384;51.986;4.458;2022-11-15T14:49:08;13.80;72.60
38488;DHT22;57384;51.986;4.458;2022-11-15T14:51:56;13.80;72.50
38488;DHT22;57384;51.986;4.458;2022-11-15T14:54:40;13.80;72.40
38488;DHT22;57384;51.986;4.458;2022-11-15T14:57:24;13.80;72.60
38488;DHT22;57384;51.986;4.458;2022-11-15T15:00:09;13.80;72.80
38488;DHT22;57384;51.986;4.458;2022-11-15T15:02:54;13.80;72.60
38488;DHT22;57384;51.986;4.458;2022-11-15T15:05:40;13.80;72.60
38488;DHT22;57384;51.986;4.458;2022-11-15T15:08:24;13.80;72.70
38488;DHT22;57384;51.986;4.458;2022-11-15T15:11:14;13.80;72.60
38488;DHT22;57384;51.986;4.458;2022-11-15T15:13:58;13.80;72.70
38488;DHT22;57384;51.986;4.458;2022-11-15T15:16:42;13.80;72.70
38488;DHT22;57384;51.986;4.458;2022-11-15T15:19:26;13.70;72.70
38488;DHT22;57384;51.986;4.458;2022-11-15T15:22:18;13.70;72.70
38488;DHT22;57384;51.986;4.458;2022-11-15T15:25:03;13.80;72.80
38488;DHT22;57384;51.986;4.458;2022-11-15T15:27:55;13.70;72.80
38488;DHT22;57384;51.986;4.458;2022-11-15T15:30:39;13.70;72.70
38488;DHT22;57384;51.986;4.458;2022-11-15T15:33:23;13.70;72.80
38488;DHT22;57384;51.986;4.458;2022-11-15T15:36:18;13.70;72.90
38488;DHT22;57384;51.986;4.458;2022-11-15T15:39:02;13.70;73.10
38488;DHT22;57384;51.986;4.458;2022-11-15T15:41:46;13.70;73.30
38488;DHT22;57384;51.986;4.458;2022-11-15T15:44:30;13.60;73.30
38488;DHT22;57384;51.986;4.458;2022-11-15T15:47:22;13.60;73.50
38488;DHT22;57384;51.986;4.458;2022-11-15T15:50:26;13.60;73.70
38488;DHT22;57384;51.986;4.458;2022-11-15T15:53:11;13.60;73.90
38488;DHT22;57384;51.986;4.458;2022-11-15T15:55:56;13.60;74.10
38488;DHT22;57384;51.986;4.458;2022-11-15T15:58:40;13.60;74.30
38488;DHT22;57384;51.986;4.458;2022-11-15T16:01:24;13.60;74.50
38488;DHT22;57384;51.986;4.458;2022-11-15T16:04:08;13.50;74.60
38488;DHT22;57384;51.986;4.458;2022-11-15T16:06:52;13.60;74.80
38488;DHT22;57384;51.986;4.458;2022-11-15T16:09:41;13.50;74.90
38488;DHT22;57384;51.986;4.458;2022-11-15T16:12:26;13.50;75.10
38488;DHT22;57384;51.986;4.458;2022-11-15T16:15:11;13.50;75.30
38488;DHT22;57384;51.986;4.458;2022-11-15T16:18:31;13.40;75.40
38488;DHT22;57384;51.986;4.458;2022-11-15T16:21:22;13.40;75.70
38488;DHT22;57384;51.986;4.458;2022-11-15T16:24:06;13.40;75.80
38488;DHT22;57384;51.986;4.458;2022-11-15T16:26:51;13.40;76.00
38488;DHT22;57384;51.986;4.458;2022-11-15T16:33:03;13.30;76.40
38488;DHT22;57384;51.986;4.458;2022-11-15T16:35:47;13.30;76.50
38488;DHT22;57384;51.986;4.458;2022-11-15T16:38:31;13.30;76.60
38488;DHT22;57384;51.986;4.458;2022-11-15T16:41:16;13.30;76.80
38488;DHT22;57384;51.986;4.458;2022-11-15T16:44:01;13.30;77.00
38488;DHT22;57384;51.986;4.458;2022-11-15T16:46:50;13.20;77.10
38488;DHT22;57384;51.986;4.458;2022-11-15T16:49:35;13.20;77.30
38488;DHT22;57384;51.986;4.458;2022-11-15T16:52:19;13.20;77.40
38488;DHT22;57384;51.986;4.458;2022-11-15T16:55:05;13.20;77.50
38488;DHT22;57384;51.986;4.458;2022-11-15T16:57:49;13.20;77.80
38488;DHT22;57384;51.986;4.458;2022-11-15T17:00:34;13.20;78.50
38488;DHT22;57384;51.986;4.458;2022-11-15T17:03:18;13.20;78.00
38488;DHT22;57384;51.986;4.458;2022-11-15T17:06:02;13.10;78.10
38488;DHT22;57384;51.986;4.458;2022-11-15T17:08:47;13.10;78.20
38488;DHT22;57384;51.986;4.458;2022-11-15T17:11:31;13.10;78.30
38488;DHT22;57384;51.986;4.458;2022-11-15T17:14:16;13.10;78.50
38488;DHT22;57384;51.986;4.458;2022-11-15T17:17:00;13.10;78.60
38488;DHT22;57384;51.986;4.458;2022-11-15T17:19:44;13.10;78.80
38488;DHT22;57384;51.986;4.458;2022-11-15T17:22:29;13.10;78.90
38488;DHT22;57384;51.986;4.458;2022-11-15T17:25:16;13.10;79.10
38488;DHT22;57384;51.986;4.458;2022-11-15T17:28:00;13.00;79.30
38488;DHT22;57384;51.986;4.458;2022-11-15T17:30:44;13.00;79.20
38488;DHT22;57384;51.986;4.458;2022-11-15T17:33:33;13.00;79.40
38488;DHT22;57384;51.986;4.458;2022-11-15T17:36:17;13.00;79.50
38488;DHT22;57384;51.986;4.458;2022-11-15T17:39:02;13.00;79.70
38488;DHT22;57384;51.986;4.458;2022-11-15T17:41:46;13.00;79.80
38488;DHT22;57384;51.986;4.458;2022-11-15T17:44:32;13.00;79.90
38488;DHT22;57384;51.986;4.458;2022-11-15T17:47:16;13.00;80.10
38488;DHT22;57384;51.986;4.458;2022-11-15T17:50:00;13.00;80.00
38488;DHT22;57384;51.986;4.458;2022-11-15T17:52:44;13.00;80.20
38488;DHT22;57384;51.986;4.458;2022-11-15T17:55:28;13.00;80.30
38488;DHT22;57384;51.986;4.458;2022-11-15T17:58:12;12.90;80.40
38488;DHT22;57384;51.986;4.458;2022-11-15T18:01:23;12.90;80.40
38488;DHT22;57384;51.986;4.458;2022-11-15T18:04:08;13.00;80.70
38488;DHT22;57384;51.986;4.458;2022-11-15T18:06:53;12.90;80.50
38488;DHT22;57384;51.986;4.458;2022-11-15T18:09:38;12.90;80.90
38488;DHT22;57384;51.986;4.458;2022-11-15T18:12:22;12.90;80.90
38488;DHT22;57384;51.986;4.458;2022-11-15T18:15:07;12.90;81.00
38488;DHT22;57384;51.986;4.458;2022-11-15T18:17:51;12.90;81.20
38488;DHT22;57384;51.986;4.458;2022-11-15T18:20:35;12.90;81.20
38488;DHT22;57384;51.986;4.458;2022-11-15T18:23:19;12.90;81.60
38488;DHT22;57384;51.986;4.458;2022-11-15T18:26:04;12.90;81.70
38488;DHT22;57384;51.986;4.458;2022-11-15T18:28:50;12.90;81.80
38488;DHT22;57384;51.986;4.458;2022-11-15T18:31:34;12.90;81.90
38488;DHT22;57384;51.986;4.458;2022-11-15T18:34:18;12.90;81.90
38488;DHT22;57384;51.986;4.458;2022-11-15T18:37:09;12.90;82.00
38488;DHT22;57384;51.986;4.458;2022-11-15T18:39:56;12.90;82.20
38488;DHT22;57384;51.986;4.458;2022-11-15T18:42:43;12.90;82.20
38488;DHT22;57384;51.986;4.458;2022-11-15T18:45:27;12.90;82.40
38488;DHT22;57384;51.986;4.458;2022-11-15T18:48:11;12.90;82.40
38488;DHT22;57384;51.986;4.458;2022-11-15T18:51:00;12.90;82.40
38488;DHT22;57384;51.986;4.458;2022-11-15T18:53:45;12.90;82.50
38488;DHT22;57384;51.986;4.458;2022-11-15T18:56:37;12.90;82.60
38488;DHT22;57384;51.986;4.458;2022-11-15T18:59:25;12.90;82.90
38488;DHT22;57384;51.986;4.458;2022-11-15T19:02:10;13.00;82.90
38488;DHT22;57384;51.986;4.458;2022-11-15T19:04:54;12.90;82.40
38488;DHT22;57384;51.986;4.458;2022-11-15T19:07:38;12.90;82.50
38488;DHT22;57384;51.986;4.458;2022-11-15T19:10:25;12.90;82.90
38488;DHT22;57384;51.986;4.458;2022-11-15T19:13:09;12.90;83.00
38488;DHT22;57384;51.986;4.458;2022-11-15T19:16:15;12.90;83.10
38488;DHT22;57384;51.986;4.458;2022-11-15T19:19:02;12.90;83.20
38488;DHT22;57384;51.986;4.458;2022-11-15T19:21:56;12.90;83.10
38488;DHT22;57384;51.986;4.458;2022-11-15T19:24:46;12.90;83.30
38488;DHT22;57384;51.986;4.458;2022-11-15T19:27:39;12.90;83.40
38488;DHT22;57384;51.986;4.458;2022-11-15T19:30:26;12.90;83.60
38488;DHT22;57384;51.986;4.458;2022-11-15T19:33:10;12.90;83.50
38488;DHT22;57384;51.986;4.458;2022-11-15T19:36:22;12.90;83.50
38488;DHT22;57384;51.986;4.458;2022-11-15T19:39:12;12.90;83.70